Abbotsford, WI (54405)

5:32 PM CST on February 11, 2016 (GMT -0600)
Taylor County | | Change Station
CLOSE
Current Station
Airport
Location: Medford,
Elevation: 1470 ft
Nearby Weather Stations

Elev 1470 ft 45.10 °N, 90.30 °W | Updated 17 minutes ago

Overcast
Overcast
11 °F
Feels Like 1 °F
N
6
Wind Variable Wind from WSW

Today
High -- | Low -- °F
--% Chance of Precip.
Yesterday
High -- | Low -- °F
Precip. -- in
Pressure 30.13 in
Visibility 10.0 miles
Clouds Overcast 6500 ft
Windchill 1 °F
Dew Point -4 °F
Humidity 51%
Rainfall 0.00 in
Snow Depth Not available.
7:08 AM 5:23 PM
Waxing Crescent, 15% visible
METAR KMDZ 112315Z AUTO 24005KT 10SM OVC065 M12/M20 A3013 RMK AO2 T11181202
Pressure 30.13 in
Visibility 10.0 miles
Clouds Overcast 6500 ft
Windchill 1 °F
Dew Point -4 °F
Humidity 51%
Rainfall 0.00 in
Snow Depth Not available.
7:08 AM 5:23 PM
Waxing Crescent, 15% visible
METAR KMDZ 112315Z AUTO 24005KT 10SM OVC065 M12/M20 A3013 RMK AO2 T11181202

10-Day Weather Forecast

Almanac

Astronomy

Feb. 11, 2016 Rise Set
Actual Time
Civil Twilight
Nautical Twilight
Astronomical Twilight
Moon
Length of Visible Light
Length of Day
Tomorrow will be .
, % of the Moon is Illuminated

Today's Extremes

State Highs State Lows

Community

WunderPhotos

Upload Photos

1,892,181 photos uploaded!

WunderBlog® & News

Nearby

Air Quality

  Air Quality AQ Index Pollutant
Not available.

Snow Depth

Station Depth Elevation

Earthquake Activity

City Distance Mag. Time & Date
Minimum magnitude displayed is 2.5.

Coastal Water Temperatures

Place Temperature

Stations

Nearby Weather Stations

Station Location Temp. Windchill Dew Point Humidity Wind Precip. Elev Updated Type
                   

Watches & Warnings

There are currently no watches in effect.